Welcome to Des Moines Iowa Weather. I am an independent private personal weather station on the Northwest Side of Des Moines, Iowa. Just East of Windsor Heights and just West of Glendale . This site is also mobile friendly.

There are no active watches, warnings or advisories


Visit our other weather sites:

Historical Data

Weather Station Setup



Weather Underground History page Text

Daily Summary for March 7, 2018 Units:  Metric    English   Both
« Previous Day
Next Day »
Daily Weekly Monthly Yearly Custom
  High: Low: Average:
Temperature: -0.2 °C -6.7 °C -3.2 °C
Dew Point: -3.3 °C -8.9 °C -6.1 °C
Humidity: 88 % 63 % 81 %
Wind Speed: 19.3 km/h 0 km/h 6.6 km/h
Wind Gust: 35.4 km/h - -
Wind:- - NW
Pressure: 1024.3 hPa 1019.5 hPa -
Precipitation: 0 mm    
Historical Graphs
 
 
Tabular Data for March 7, 2018
Time Temperature Dew Point Pressure Wind Wind Speed Wind Gust Humidity Rainfall Rate (Hourly)
00:00 -1.3 °C -3.4 °C 1019.5 hPa NNW 11.3 km/h 27.4 km/h 85 % 0 mm
00:03 -1.3 °C -3.3 °C 1020.9 hPa NW 9.7 km/h 20.9 km/h 85 % 0 mm
00:05 -1.3 °C -3.4 °C 1019.5 hPa NNW 11.3 km/h 27.4 km/h 85 % 0 mm
00:10 -1.3 °C -3.4 °C 1019.5 hPa NNW 11.3 km/h 27.4 km/h 85 % 0 mm
00:15 -1.3 °C -3.5 °C 1019.5 hPa NNW 9.7 km/h 24.1 km/h 85 % 0 mm
00:18 -1.4 °C -3.9 °C 1020.9 hPa NNW 8 km/h 20.9 km/h 84 % 0 mm
00:20 -1.3 °C -3.5 °C 1019.5 hPa NNW 9.7 km/h 24.1 km/h 85 % 0 mm
00:25 -1.3 °C -3.5 °C 1019.5 hPa NNW 9.7 km/h 24.1 km/h 85 % 0 mm
00:30 -1.4 °C -3.8 °C 1019.9 hPa NNW 6.4 km/h 20.9 km/h 84 % 0 mm
00:33 -1.5 °C -3.9 °C 1020.9 hPa NW 3.2 km/h 16.1 km/h 84 % 0 mm
00:35 -1.4 °C -3.8 °C 1019.9 hPa NNW 6.4 km/h 20.9 km/h 84 % 0 mm
00:40 -1.4 °C -3.8 °C 1019.9 hPa NNW 6.4 km/h 20.9 km/h 84 % 0 mm
00:45 -1.5 °C -3.8 °C 1019.9 hPa NW 6.4 km/h 19.3 km/h 84 % 0 mm
00:48 -1.6 °C -3.9 °C 1020.9 hPa NW 1.6 km/h 19.3 km/h 83 % 0 mm
00:50 -1.5 °C -3.8 °C 1019.9 hPa NW 6.4 km/h 19.3 km/h 84 % 0 mm
00:55 -1.5 °C -3.8 °C 1019.9 hPa NW 6.4 km/h 19.3 km/h 84 % 0 mm
01:00 -1.6 °C -4.1 °C 1020.2 hPa NNW 6.4 km/h 22.5 km/h 83 % 0 mm
01:03 -1.7 °C -4.4 °C 1021.2 hPa NW 8 km/h 14.5 km/h 81 % 0 mm
01:05 -1.6 °C -4.1 °C 1020.2 hPa NNW 6.4 km/h 22.5 km/h 83 % 0 mm
01:10 -1.6 °C -4.1 °C 1020.2 hPa NNW 6.4 km/h 22.5 km/h 83 % 0 mm
01:15 -1.7 °C -4.5 °C 1020.2 hPa NW 6.4 km/h 19.3 km/h 81 % 0 mm
01:18 -1.7 °C -5 °C 1021.2 hPa NNW 8 km/h 16.1 km/h 77 % 0 mm
01:20 -1.7 °C -4.5 °C 1020.2 hPa NW 6.4 km/h 19.3 km/h 81 % 0 mm
01:25 -1.7 °C -4.5 °C 1020.2 hPa NW 6.4 km/h 19.3 km/h 81 % 0 mm
01:30 -1.7 °C -5.2 °C 1020.2 hPa NNW 8 km/h 22.5 km/h 77 % 0 mm
01:33 -1.8 °C -5.6 °C 1021.2 hPa NW 3.2 km/h 9.7 km/h 77 % 0 mm
01:35 -1.7 °C -5.2 °C 1020.2 hPa NNW 8 km/h 22.5 km/h 77 % 0 mm
01:40 -1.7 °C -5.2 °C 1020.2 hPa NNW 8 km/h 22.5 km/h 77 % 0 mm
01:45 -1.8 °C -5.3 °C 1020.2 hPa NNW 6.4 km/h 16.1 km/h 77 % 0 mm
01:48 -2 °C -5.6 °C 1021.2 hPa NW 8 km/h 16.1 km/h 77 % 0 mm
01:50 -1.8 °C -5.3 °C 1020.2 hPa NNW 6.4 km/h 16.1 km/h 77 % 0 mm
01:55 -1.8 °C -5.3 °C 1020.2 hPa NNW 6.4 km/h 16.1 km/h 77 % 0 mm
02:00 -1.9 °C -5.4 °C 1020.2 hPa NNW 6.4 km/h 16.1 km/h 77 % 0 mm
02:03 -2.2 °C -5.6 °C 1021.2 hPa NNW 6.4 km/h 16.1 km/h 77 % 0 mm
02:05 -1.9 °C -5.4 °C 1020.2 hPa NNW 6.4 km/h 16.1 km/h 77 % 0 mm
02:10 -1.9 °C -5.4 °C 1020.2 hPa NNW 6.4 km/h 16.1 km/h 77 % 0 mm
02:15 -2.2 °C -5.7 °C 1020.2 hPa NNW 8 km/h 20.9 km/h 77 % 0 mm
02:20 -2.2 °C -5.7 °C 1020.2 hPa NNW 8 km/h 20.9 km/h 77 % 0 mm
02:21 -2.5 °C -5.6 °C 1021.6 hPa NW 4.8 km/h 17.7 km/h 79 % 0 mm
02:25 -2.2 °C -5.7 °C 1020.2 hPa NNW 8 km/h 20.9 km/h 77 % 0 mm
02:30 -2.5 °C -5.6 °C 1020.2 hPa NNW 6.4 km/h 19.3 km/h 79 % 0 mm
02:34 -2.6 °C -5.6 °C 1021.6 hPa WNW 1.6 km/h 16.1 km/h 80 % 0 mm
02:35 -2.5 °C -5.6 °C 1020.2 hPa NNW 6.4 km/h 19.3 km/h 79 % 0 mm
02:40 -2.5 °C -5.6 °C 1020.2 hPa NNW 6.4 km/h 19.3 km/h 79 % 0 mm
02:45 -2.6 °C -5.6 °C 1020.5 hPa NW 6.4 km/h 20.9 km/h 80 % 0 mm
02:50 -2.8 °C -5.6 °C 1021.6 hPa NW 3.2 km/h 16.1 km/h 81 % 0 mm
02:55 -2.6 °C -5.6 °C 1020.5 hPa NW 6.4 km/h 20.9 km/h 80 % 0 mm
02:59 -2.8 °C -5.6 °C 1020.5 hPa NNW 3.2 km/h 17.7 km/h 81 % 0 mm
03:00 -2.8 °C -5.6 °C 1020.5 hPa NNW 8 km/h 17.7 km/h 81 % 0 mm
03:05 -3.1 °C -6.1 °C 1021.9 hPa WNW 6.4 km/h 16.1 km/h 81 % 0 mm
03:10 -2.8 °C -5.6 °C 1020.5 hPa NNW 8 km/h 17.7 km/h 81 % 0 mm
03:15 -3.1 °C -5.9 °C 1020.5 hPa NW 8 km/h 19.3 km/h 81 % 0 mm
03:19 -3.4 °C -6.1 °C 1021.6 hPa WNW 11.3 km/h 19.3 km/h 81 % 0 mm
03:20 -3.1 °C -5.9 °C 1020.5 hPa NW 8 km/h 19.3 km/h 81 % 0 mm
03:25 -3.1 °C -5.9 °C 1020.5 hPa NW 8 km/h 19.3 km/h 81 % 0 mm
03:30 -3.4 °C -6.2 °C 1020.5 hPa NW 8 km/h 22.5 km/h 81 % 0 mm
03:35 -3.4 °C -6.2 °C 1020.5 hPa NW 8 km/h 22.5 km/h 81 % 0 mm
03:39 -3.7 °C -6.1 °C 1021.2 hPa WNW 4.8 km/h 17.7 km/h 82 % 0 mm
03:40 -3.4 °C -6.2 °C 1020.5 hPa NW 8 km/h 22.5 km/h 81 % 0 mm
03:45 -3.7 °C -6.3 °C 1020.2 hPa NW 6.4 km/h 19.3 km/h 82 % 0 mm
03:49 -3.9 °C -6.7 °C 1020.9 hPa WNW 3.2 km/h 9.7 km/h 82 % 0 mm
03:50 -3.7 °C -6.3 °C 1020.2 hPa NW 6.4 km/h 19.3 km/h 82 % 0 mm
03:55 -3.7 °C -6.3 °C 1020.2 hPa NW 6.4 km/h 19.3 km/h 82 % 0 mm
04:00 -3.8 °C -6.4 °C 1019.9 hPa NW 3.2 km/h 14.5 km/h 82 % 0 mm
04:04 -4.2 °C -6.7 °C 1021.6 hPa NW 3.2 km/h 8 km/h 82 % 0 mm
04:05 -3.8 °C -6.4 °C 1019.9 hPa NW 3.2 km/h 14.5 km/h 82 % 0 mm
04:10 -3.8 °C -6.4 °C 1019.9 hPa NW 3.2 km/h 14.5 km/h 82 % 0 mm
04:15 -4.2 °C -6.8 °C 1020.2 hPa NW 1.6 km/h 12.9 km/h 82 % 0 mm
04:19 -4.4 °C -6.7 °C 1021.6 hPa WNW 3.2 km/h 14.5 km/h 83 % 0 mm
04:20 -4.2 °C -6.8 °C 1020.2 hPa NW 1.6 km/h 12.9 km/h 82 % 0 mm
04:25 -4.2 °C -6.8 °C 1020.2 hPa NW 1.6 km/h 12.9 km/h 82 % 0 mm
04:30 -4.4 °C -6.8 °C 1020.5 hPa NW 3.2 km/h 19.3 km/h 83 % 0 mm
04:34 -4.7 °C -6.7 °C 1021.6 hPa NW 4.8 km/h 12.9 km/h 84 % 0 mm
04:35 -4.4 °C -6.8 °C 1020.5 hPa NW 3.2 km/h 19.3 km/h 83 % 0 mm
04:40 -4.4 °C -6.8 °C 1020.5 hPa NW 3.2 km/h 19.3 km/h 83 % 0 mm
04:45 -4.7 °C -6.9 °C 1020.5 hPa NW 4.8 km/h 14.5 km/h 84 % 0 mm
04:49 -4.9 °C -7.2 °C 1021.6 hPa NW 1.6 km/h 16.1 km/h 84 % 0 mm
04:50 -4.7 °C -6.9 °C 1020.5 hPa NW 4.8 km/h 14.5 km/h 84 % 0 mm
04:55 -4.7 °C -6.9 °C 1020.5 hPa NW 4.8 km/h 14.5 km/h 84 % 0 mm
05:00 -4.9 °C -7.2 °C 1020.5 hPa NNW 6.4 km/h 19.3 km/h 84 % 0 mm
05:04 -5.3 °C -7.8 °C 1021.6 hPa West 4.8 km/h 12.9 km/h 84 % 0 mm
05:05 -4.9 °C -7.2 °C 1020.5 hPa NNW 6.4 km/h 19.3 km/h 84 % 0 mm
05:10 -4.9 °C -7.2 °C 1020.5 hPa NNW 6.4 km/h 19.3 km/h 84 % 0 mm
05:15 -5.3 °C -7.6 °C 1020.5 hPa NNW 4.8 km/h 14.5 km/h 84 % 0 mm
05:19 -5.6 °C -7.8 °C 1021.6 hPa NNW 8 km/h 9.7 km/h 84 % 0 mm
05:20 -5.3 °C -7.6 °C 1020.5 hPa NNW 4.8 km/h 14.5 km/h 84 % 0 mm
05:25 -5.3 °C -7.6 °C 1020.5 hPa NNW 4.8 km/h 14.5 km/h 84 % 0 mm
05:30 -5.6 °C -7.8 °C 1020.5 hPa NW 4.8 km/h 16.1 km/h 84 % 0 mm
05:34 -5.8 °C -8.3 °C 1021.6 hPa NW 1.6 km/h 3.2 km/h 84 % 0 mm
05:35 -5.6 °C -7.8 °C 1020.5 hPa NW 4.8 km/h 16.1 km/h 84 % 0 mm
05:40 -5.6 °C -7.8 °C 1020.5 hPa NW 4.8 km/h 16.1 km/h 84 % 0 mm
05:45 -5.8 °C -8.1 °C 1020.5 hPa Calm   12.9 km/h 84 % 0 mm
05:49 -6.1 °C -8.3 °C 1021.6 hPa West 1.6 km/h 6.4 km/h 84 % 0 mm
05:50 -5.8 °C -8.1 °C 1020.5 hPa Calm   12.9 km/h 84 % 0 mm
05:55 -5.8 °C -8.1 °C 1020.5 hPa Calm   12.9 km/h 84 % 0 mm
06:00 -6.1 °C -8.3 °C 1020.9 hPa NW 1.6 km/h 6.4 km/h 84 % 0 mm
06:04 -6.3 °C -8.3 °C 1022.2 hPa NW 4.8 km/h 9.7 km/h 84 % 0 mm
06:05 -6.1 °C -8.3 °C 1020.9 hPa NW 1.6 km/h 6.4 km/h 84 % 0 mm
06:10 -6.1 °C -8.3 °C 1020.9 hPa NW 1.6 km/h 6.4 km/h 84 % 0 mm
06:15 -6.3 °C -8.6 °C 1020.9 hPa NW 1.6 km/h 16.1 km/h 84 % 0 mm
06:19 -6.4 °C -8.3 °C 1022.2 hPa WNW 3.2 km/h 16.1 km/h 85 % 0 mm
06:20 -6.3 °C -8.6 °C 1020.9 hPa NW 1.6 km/h 16.1 km/h 84 % 0 mm
06:25 -6.3 °C -8.6 °C 1020.9 hPa NW 1.6 km/h 16.1 km/h 84 % 0 mm
06:30 -6.3 °C -8.4 °C 1021.2 hPa NW 3.2 km/h 19.3 km/h 85 % 0 mm
06:34 -6.4 °C -8.3 °C 1021.9 hPa WNW 6.4 km/h 12.9 km/h 85 % 0 mm
06:35 -6.3 °C -8.4 °C 1021.2 hPa NW 3.2 km/h 19.3 km/h 85 % 0 mm
06:40 -6.3 °C -8.4 °C 1021.2 hPa NW 3.2 km/h 19.3 km/h 85 % 0 mm
06:45 -6.4 °C -8.5 °C 1021.2 hPa NW 6.4 km/h 24.1 km/h 85 % 0 mm
06:49 -6.5 °C -8.9 °C 1022.2 hPa NW 8 km/h 12.9 km/h 84 % 0 mm
06:50 -6.4 °C -8.5 °C 1021.2 hPa NW 6.4 km/h 24.1 km/h 85 % 0 mm
06:55 -6.4 °C -8.5 °C 1021.2 hPa NW 6.4 km/h 24.1 km/h 85 % 0 mm
07:00 -6.5 °C -8.8 °C 1021.2 hPa NW 4.8 km/h 17.7 km/h 84 % 0 mm
07:04 -6.6 °C -8.9 °C 1022.2 hPa WNW 6.4 km/h 14.5 km/h 84 % 0 mm
07:05 -6.5 °C -8.8 °C 1021.2 hPa NW 4.8 km/h 17.7 km/h 84 % 0 mm
07:10 -6.5 °C -8.8 °C 1021.2 hPa NW 4.8 km/h 17.7 km/h 84 % 0 mm
07:15 -6.6 °C -8.9 °C 1021.2 hPa NW 6.4 km/h 25.7 km/h 84 % 0 mm
07:19 -6.7 °C -8.9 °C 1022.6 hPa NW 8 km/h 14.5 km/h 84 % 0 mm
07:20 -6.6 °C -8.9 °C 1021.2 hPa NW 6.4 km/h 25.7 km/h 84 % 0 mm
07:25 -6.6 °C -8.9 °C 1021.2 hPa NW 6.4 km/h 25.7 km/h 84 % 0 mm
07:30 -6.6 °C -8.7 °C 1021.6 hPa WNW 4.8 km/h 6.4 km/h 85 % 0 mm
07:34 -6.6 °C -8.9 °C 1022.6 hPa WNW 1.6 km/h 8 km/h 85 % 0 mm
07:42 -6.6 °C -8.7 °C 1021.6 hPa WNW 3.2 km/h 3.2 km/h 85 % 0 mm
07:47 -6.4 °C -8.5 °C 1021.2 hPa Calm   9.7 km/h 85 % 0 mm
07:52 -6.3 °C -8.4 °C 1021.6 hPa NW 4.8 km/h 12.9 km/h 85 % 0 mm
07:57 -6.2 °C -8.3 °C 1021.6 hPa Calm   4.8 km/h 85 % 0 mm
08:02 -6 °C -8.1 °C 1021.6 hPa NNW 6.4 km/h 6.4 km/h 85 % 0 mm
08:07 -5.8 °C -7.9 °C 1021.6 hPa NNW 8 km/h 22.5 km/h 85 % 0 mm
08:12 -5.8 °C -7.9 °C 1021.2 hPa NNW 8 km/h 17.7 km/h 85 % 0 mm
08:17 -5.6 °C -7.9 °C 1021.2 hPa NW 1.6 km/h 9.7 km/h 84 % 0 mm
08:22 -5.4 °C -7.7 °C 1021.2 hPa NW 14.5 km/h 16.1 km/h 84 % 0 mm
08:27 -5.3 °C -7.6 °C 1021.2 hPa WNW 1.6 km/h 12.9 km/h 84 % 0 mm
08:32 -5.2 °C -7.4 °C 1021.2 hPa NW 9.7 km/h 12.9 km/h 84 % 0 mm
08:37 -5 °C -7.4 °C 1021.2 hPa NNW 8 km/h 20.9 km/h 83 % 0 mm
08:42 -4.9 °C -7.6 °C 1021.2 hPa West 6.4 km/h 12.9 km/h 82 % 0 mm
08:47 -4.7 °C -7.3 °C 1021.6 hPa West 9.7 km/h 12.9 km/h 82 % 0 mm
08:52 -4.6 °C -7.2 °C 1021.2 hPa NW 3.2 km/h 14.5 km/h 82 % 0 mm
08:57 -4.4 °C -7.2 °C 1021.2 hPa NNW 3.2 km/h 12.9 km/h 81 % 0 mm
09:02 -4.4 °C -7.2 °C 1021.2 hPa WNW 6.4 km/h 17.7 km/h 81 % 0 mm
09:07 -4.3 °C -7.2 °C 1021.2 hPa NNW 8 km/h 16.1 km/h 80 % 0 mm
09:10 -4.2 °C -7.1 °C 1021.2 hPa NW 9.7 km/h 16.1 km/h 80 % 0 mm
09:15 -4.2 °C -7.1 °C 1021.2 hPa NW 9.7 km/h 17.7 km/h 80 % 0 mm
09:19 -3.8 °C -7.2 °C 1022.6 hPa WNW 6.4 km/h 14.5 km/h 79 % 0 mm
09:20 -4.2 °C -7.1 °C 1021.2 hPa NW 9.7 km/h 17.7 km/h 80 % 0 mm
09:25 -3.9 °C -7 °C 1021.2 hPa NW 9.7 km/h 24.1 km/h 79 % 0 mm
09:30 -3.9 °C -7 °C 1021.2 hPa NW 9.7 km/h 24.1 km/h 79 % 0 mm
09:34 -3.3 °C -6.7 °C 1022.6 hPa NNW 8 km/h 20.9 km/h 77 % 0 mm
09:35 -3.9 °C -7 °C 1021.2 hPa NW 9.7 km/h 24.1 km/h 79 % 0 mm
09:40 -3.3 °C -6.8 °C 1021.6 hPa NNW 11.3 km/h 27.4 km/h 77 % 0 mm
09:45 -3.3 °C -6.8 °C 1021.6 hPa NNW 11.3 km/h 27.4 km/h 77 % 0 mm
09:50 -3 °C -6.7 °C 1022.6 hPa NW 6.4 km/h 20.9 km/h 75 % 0 mm
09:55 -3.1 °C -6.8 °C 1021.6 hPa NNW 11.3 km/h 22.5 km/h 75 % 0 mm
10:00 -3.1 °C -6.8 °C 1021.6 hPa NNW 11.3 km/h 22.5 km/h 75 % 0 mm
10:05 -2.7 °C -6.7 °C 1022.6 hPa NNW 8 km/h 19.3 km/h 75 % 0 mm
10:10 -2.7 °C -6.6 °C 1021.6 hPa NW 9.7 km/h 25.7 km/h 75 % 0 mm
10:15 -2.7 °C -6.6 °C 1021.6 hPa NW 9.7 km/h 25.7 km/h 75 % 0 mm
10:20 -2.3 °C -6.7 °C 1022.2 hPa NW 4.8 km/h 20.9 km/h 72 % 0 mm
10:25 -2.3 °C -6.6 °C 1021.6 hPa NW 11.3 km/h 27.4 km/h 72 % 0 mm
10:30 -2.3 °C -6.6 °C 1021.6 hPa NW 11.3 km/h 27.4 km/h 72 % 0 mm
10:35 -1.9 °C -6.7 °C 1022.2 hPa NW 12.9 km/h 22.5 km/h 71 % 0 mm
10:40 -2 °C -6.6 °C 1021.2 hPa NW 11.3 km/h 22.5 km/h 71 % 0 mm
10:45 -2 °C -6.6 °C 1021.2 hPa NW 11.3 km/h 22.5 km/h 71 % 0 mm
10:50 -1.9 °C -6.7 °C 1022.2 hPa WNW 3.2 km/h 20.9 km/h 71 % 0 mm
10:55 -1.9 °C -6.7 °C 1021.2 hPa NNW 9.7 km/h 30.6 km/h 70 % 0 mm
11:00 -1.9 °C -6.7 °C 1021.2 hPa NNW 9.7 km/h 30.6 km/h 70 % 0 mm
11:05 -1.6 °C -6.1 °C 1022.2 hPa WNW 3.2 km/h 22.5 km/h 70 % 0 mm
11:10 -1.6 °C -6.4 °C 1021.2 hPa NW 9.7 km/h 27.4 km/h 70 % 0 mm
11:15 -1.6 °C -6.4 °C 1021.2 hPa NW 9.7 km/h 27.4 km/h 70 % 0 mm
11:20 -1.3 °C -6.1 °C 1022.2 hPa WNW 4.8 km/h 24.1 km/h 69 % 0 mm
11:25 -1.4 °C -6.4 °C 1021.2 hPa NNW 9.7 km/h 27.4 km/h 69 % 0 mm
11:30 -1.4 °C -6.4 °C 1021.2 hPa NNW 9.7 km/h 27.4 km/h 69 % 0 mm
11:35 -1.3 °C -6.7 °C 1022.2 hPa NW 8 km/h 19.3 km/h 68 % 0 mm
11:40 -1.4 °C -6.5 °C 1021.2 hPa NW 9.7 km/h 24.1 km/h 68 % 0 mm
11:45 -1.4 °C -6.5 °C 1021.2 hPa NW 9.7 km/h 24.1 km/h 68 % 0 mm
11:50 -0.9 °C -6.7 °C 1022.2 hPa NNW 17.7 km/h 20.9 km/h 67 % 0 mm
11:55 -1 °C -6.3 °C 1021.2 hPa NW 9.7 km/h 24.1 km/h 67 % 0 mm
12:00 -1 °C -6.3 °C 1021.2 hPa NW 9.7 km/h 24.1 km/h 67 % 0 mm
12:05 -0.5 °C -6.7 °C 1022.2 hPa NNW 8 km/h 22.5 km/h 63 % 0 mm
12:10 -0.5 °C -6.7 °C 1021.2 hPa NW 9.7 km/h 25.7 km/h 63 % 0 mm
12:15 -0.5 °C -6.7 °C 1021.2 hPa NW 9.7 km/h 25.7 km/h 63 % 0 mm
12:20 -0.7 °C -7.2 °C 1021.9 hPa West 6.4 km/h 24.1 km/h 63 % 0 mm
12:25 -0.7 °C -6.8 °C 1021.2 hPa NW 14.5 km/h 30.6 km/h 63 % 0 mm
12:30 -0.7 °C -6.8 °C 1021.2 hPa NW 14.5 km/h 30.6 km/h 63 % 0 mm
12:35 -0.3 °C -6.1 °C 1021.9 hPa NNW 16.1 km/h 25.7 km/h 65 % 0 mm
12:40 -0.3 °C -6.3 °C 1020.9 hPa NW 11.3 km/h 27.4 km/h 64 % 0 mm
12:45 -0.3 °C -6.3 °C 1020.9 hPa NW 11.3 km/h 27.4 km/h 64 % 0 mm
12:50 -0.4 °C -6.7 °C 1021.9 hPa WNW 6.4 km/h 25.7 km/h 64 % 0 mm
12:55 -0.3 °C -6.3 °C 1020.5 hPa NW 14.5 km/h 32.2 km/h 64 % 0 mm
13:00 -0.3 °C -6.3 °C 1020.5 hPa NW 14.5 km/h 32.2 km/h 64 % 0 mm
13:05 -0.2 °C -6.1 °C 1021.9 hPa NW 8 km/h 24.1 km/h 66 % 0 mm
13:10 -0.3 °C -6.1 °C 1020.9 hPa NW 12.9 km/h 25.7 km/h 65 % 0 mm
13:15 -0.3 °C -6.1 °C 1020.9 hPa NW 12.9 km/h 25.7 km/h 65 % 0 mm
13:20 -0.3 °C -6.1 °C 1021.9 hPa NW 4.8 km/h 24.1 km/h 65 % 0 mm
13:25 -0.2 °C -5.9 °C 1020.5 hPa NNW 12.9 km/h 29 km/h 65 % 0 mm
13:30 -0.2 °C -5.9 °C 1020.5 hPa NNW 12.9 km/h 29 km/h 65 % 0 mm
13:35 -0.4 °C -6.1 °C 1021.9 hPa NW 8 km/h 20.9 km/h 67 % 0 mm
13:40 -0.3 °C -5.7 °C 1020.5 hPa NW 11.3 km/h 29 km/h 67 % 0 mm
13:45 -0.3 °C -5.7 °C 1020.5 hPa NW 11.3 km/h 29 km/h 67 % 0 mm
13:50 -0.9 °C -5.6 °C 1021.6 hPa WNW 16.1 km/h 17.7 km/h 71 % 0 mm
13:55 -0.9 °C -5.7 °C 1020.5 hPa NNW 9.7 km/h 25.7 km/h 70 % 0 mm
14:00 -0.9 °C -5.7 °C 1020.5 hPa NNW 9.7 km/h 25.7 km/h 70 % 0 mm
14:05 -1.3 °C -5 °C 1021.6 hPa NW 19.3 km/h 22.5 km/h 75 % 0 mm
14:10 -1.3 °C -5.1 °C 1020.5 hPa NW 11.3 km/h 24.1 km/h 75 % 0 mm
14:15 -1.3 °C -5.1 °C 1020.5 hPa NW 11.3 km/h 24.1 km/h 75 % 0 mm
14:20 -1.2 °C -4.4 °C 1021.6 hPa NW 4.8 km/h 9.7 km/h 77 % 0 mm
14:25 -1.2 °C -4.7 °C 1020.5 hPa NW 8 km/h 22.5 km/h 77 % 0 mm
14:30 -1.2 °C -4.7 °C 1020.5 hPa NW 8 km/h 22.5 km/h 77 % 0 mm
14:35 -1.2 °C -4.4 °C 1021.6 hPa West 1.6 km/h 14.5 km/h 77 % 0 mm
14:40 -1.2 °C -4.7 °C 1020.5 hPa NW 8 km/h 20.9 km/h 77 % 0 mm
14:45 -1.2 °C -4.7 °C 1020.5 hPa NW 8 km/h 20.9 km/h 77 % 0 mm
14:50 -1.2 °C -4.7 °C 1020.5 hPa NW 8 km/h 20.9 km/h 77 % 0 mm
14:55 -0.9 °C -4.4 °C 1021.6 hPa WNW 6.4 km/h 17.7 km/h 76 % 0 mm
15:00 -0.9 °C -4.6 °C 1020.2 hPa NW 8 km/h 22.5 km/h 76 % 0 mm
15:05 -1 °C -4.4 °C 1021.6 hPa WNW 6.4 km/h 17.7 km/h 77 % 0 mm
15:10 -0.9 °C -4.6 °C 1020.5 hPa NW 8 km/h 20.9 km/h 76 % 0 mm
15:15 -0.9 °C -4.6 °C 1020.5 hPa NW 8 km/h 20.9 km/h 76 % 0 mm
15:20 -0.9 °C -4.6 °C 1020.5 hPa NW 8 km/h 20.9 km/h 76 % 0 mm
15:25 -1.3 °C -4.3 °C 1020.5 hPa NW 8 km/h 22.5 km/h 80 % 0 mm
15:28 -1.4 °C -4.4 °C 1021.6 hPa WNW 6.4 km/h 16.1 km/h 81 % 0 mm
15:30 -1.3 °C -4.3 °C 1020.5 hPa NW 8 km/h 22.5 km/h 80 % 0 mm
15:35 -1.7 °C -4.4 °C 1021.6 hPa NW 3.2 km/h 17.7 km/h 83 % 0 mm
15:40 -1.7 °C -4.2 °C 1020.5 hPa NW 6.4 km/h 19.3 km/h 83 % 0 mm
15:45 -1.7 °C -4.2 °C 1020.5 hPa NW 6.4 km/h 19.3 km/h 83 % 0 mm
15:50 -2 °C -4.4 °C 1021.6 hPa NW 6.4 km/h 19.3 km/h 84 % 0 mm
15:55 -2 °C -4.3 °C 1020.5 hPa NNW 6.4 km/h 19.3 km/h 84 % 0 mm
16:00 -2 °C -4.3 °C 1020.5 hPa NNW 6.4 km/h 19.3 km/h 84 % 0 mm
16:05 -2 °C -3.9 °C 1021.6 hPa NW 8 km/h 12.9 km/h 86 % 0 mm
16:10 -2 °C -4 °C 1020.5 hPa NNW 6.4 km/h 16.1 km/h 86 % 0 mm
16:15 -2 °C -4 °C 1020.5 hPa NNW 6.4 km/h 16.1 km/h 86 % 0 mm
16:20 -2.1 °C -3.9 °C 1021.9 hPa NW 3.2 km/h 8 km/h 87 % 0 mm
16:25 -2.1 °C -3.9 °C 1020.5 hPa NNW 4.8 km/h 14.5 km/h 87 % 0 mm
16:30 -2.1 °C -3.9 °C 1020.5 hPa NNW 4.8 km/h 14.5 km/h 87 % 0 mm
16:35 -2.1 °C -3.9 °C 1021.9 hPa North 4.8 km/h 17.7 km/h 87 % 0 mm
16:40 -2.1 °C -3.9 °C 1020.5 hPa NW 6.4 km/h 19.3 km/h 87 % 0 mm
16:45 -2.1 °C -3.9 °C 1020.5 hPa NW 6.4 km/h 19.3 km/h 87 % 0 mm
16:50 -2.1 °C -3.9 °C 1021.9 hPa NW 3.2 km/h 20.9 km/h 88 % 0 mm
16:55 -2.1 °C -3.8 °C 1020.9 hPa NW 8 km/h 24.1 km/h 88 % 0 mm
17:00 -2.1 °C -3.8 °C 1020.9 hPa NW 8 km/h 24.1 km/h 88 % 0 mm
17:05 -2.4 °C -4.4 °C 1022.2 hPa WNW 11.3 km/h 25.7 km/h 87 % 0 mm
17:10 -2.4 °C -4.2 °C 1021.2 hPa NW 11.3 km/h 35.4 km/h 87 % 0 mm
17:15 -2.4 °C -4.2 °C 1021.2 hPa NW 11.3 km/h 35.4 km/h 87 % 0 mm
17:20 -2.4 °C -4.4 °C 1022.2 hPa WNW 3.2 km/h 16.1 km/h 87 % 0 mm
17:25 -2.4 °C -4.3 °C 1021.2 hPa NW 9.7 km/h 22.5 km/h 87 % 0 mm
17:30 -2.4 °C -4.3 °C 1021.2 hPa NW 9.7 km/h 22.5 km/h 87 % 0 mm
17:35 -2.6 °C -4.4 °C 1022.6 hPa West 3.2 km/h 20.9 km/h 85 % 0 mm
17:40 -2.6 °C -4.6 °C 1021.2 hPa NW 9.7 km/h 25.7 km/h 86 % 0 mm
17:45 -2.6 °C -4.6 °C 1021.2 hPa NW 9.7 km/h 25.7 km/h 86 % 0 mm
17:50 -2.7 °C -4.4 °C 1022.6 hPa NNE 4.8 km/h 12.9 km/h 86 % 0 mm
17:55 -2.7 °C -4.7 °C 1021.6 hPa NW 6.4 km/h 20.9 km/h 86 % 0 mm
18:00 -2.7 °C -4.7 °C 1021.6 hPa NW 6.4 km/h 20.9 km/h 86 % 0 mm
18:05 -2.8 °C -5 °C 1022.6 hPa NW 16.1 km/h 20.9 km/h 86 % 0 mm
18:10 -2.8 °C -4.8 °C 1021.6 hPa NNW 8 km/h 27.4 km/h 86 % 0 mm
18:15 -2.8 °C -4.8 °C 1021.6 hPa NNW 8 km/h 27.4 km/h 86 % 0 mm
18:20 -2.9 °C -5 °C 1022.9 hPa WNW 11.3 km/h 17.7 km/h 87 % 0 mm
18:25 -2.9 °C -4.8 °C 1021.6 hPa NW 4.8 km/h 24.1 km/h 87 % 0 mm
18:30 -2.9 °C -4.8 °C 1021.6 hPa NW 4.8 km/h 24.1 km/h 87 % 0 mm
18:35 -3.1 °C -5 °C 1022.9 hPa WNW 4.8 km/h 17.7 km/h 87 % 0 mm
18:40 -3.1 °C -4.9 °C 1021.9 hPa NW 8 km/h 22.5 km/h 87 % 0 mm
18:45 -3.1 °C -4.9 °C 1021.9 hPa NW 8 km/h 22.5 km/h 87 % 0 mm
18:50 -3.2 °C -5 °C 1022.9 hPa NW 4.8 km/h 19.3 km/h 87 % 0 mm
18:55 -3.2 °C -5.1 °C 1021.9 hPa NW 6.4 km/h 19.3 km/h 87 % 0 mm
19:00 -3.2 °C -5.1 °C 1021.9 hPa NW 6.4 km/h 19.3 km/h 87 % 0 mm
19:05 -3.3 °C -5 °C 1022.9 hPa WNW 4.8 km/h 12.9 km/h 87 % 0 mm
19:10 -3.3 °C -5.1 °C 1021.9 hPa NW 9.7 km/h 25.7 km/h 87 % 0 mm
19:15 -3.3 °C -5.1 °C 1021.9 hPa NW 9.7 km/h 25.7 km/h 87 % 0 mm
19:20 -3.3 °C -5.6 °C 1023.2 hPa West 11.3 km/h 14.5 km/h 86 % 0 mm
19:25 -3.3 °C -5.3 °C 1022.2 hPa NW 4.8 km/h 20.9 km/h 86 % 0 mm
19:30 -3.3 °C -5.3 °C 1022.2 hPa NW 4.8 km/h 20.9 km/h 86 % 0 mm
19:35 -3.3 °C -5 °C 1023.2 hPa NW 3.2 km/h 16.1 km/h 86 % 0 mm
19:40 -3.3 °C -5.3 °C 1022.2 hPa NW 6.4 km/h 22.5 km/h 86 % 0 mm
19:45 -3.3 °C -5.3 °C 1022.2 hPa NW 6.4 km/h 22.5 km/h 86 % 0 mm
19:50 -3.3 °C -5.6 °C 1023.6 hPa NW 6.4 km/h 14.5 km/h 85 % 0 mm
19:55 -3.3 °C -5.5 °C 1022.2 hPa NW 4.8 km/h 17.7 km/h 85 % 0 mm
20:00 -3.3 °C -5.5 °C 1022.2 hPa NW 4.8 km/h 17.7 km/h 85 % 0 mm
20:05 -3.4 °C -5.6 °C 1023.6 hPa NW 3.2 km/h 16.1 km/h 85 % 0 mm
20:10 -3.4 °C -5.6 °C 1022.6 hPa NW 6.4 km/h 19.3 km/h 85 % 0 mm
20:15 -3.4 °C -5.6 °C 1022.6 hPa NW 6.4 km/h 19.3 km/h 85 % 0 mm
20:20 -3.5 °C -5.6 °C 1023.6 hPa NW 3.2 km/h 17.7 km/h 85 % 0 mm
20:25 -3.4 °C -5.6 °C 1022.6 hPa NW 4.8 km/h 22.5 km/h 85 % 0 mm
20:30 -3.4 °C -5.6 °C 1022.6 hPa NW 4.8 km/h 22.5 km/h 85 % 0 mm
20:35 -3.5 °C -5.6 °C 1023.6 hPa WNW 3.2 km/h 14.5 km/h 84 % 0 mm
20:40 -3.5 °C -5.7 °C 1022.6 hPa NW 6.4 km/h 19.3 km/h 85 % 0 mm
20:45 -3.5 °C -5.7 °C 1022.6 hPa NW 6.4 km/h 19.3 km/h 85 % 0 mm
20:50 -3.5 °C -5.6 °C 1023.9 hPa WNW 3.2 km/h 17.7 km/h 84 % 0 mm
20:55 -3.5 °C -5.8 °C 1022.9 hPa NW 4.8 km/h 17.7 km/h 84 % 0 mm
21:00 -3.5 °C -5.8 °C 1022.9 hPa NW 4.8 km/h 17.7 km/h 84 % 0 mm
21:05 -3.6 °C -6.1 °C 1023.6 hPa NW 8 km/h 17.7 km/h 84 % 0 mm
21:10 -3.6 °C -5.8 °C 1022.9 hPa NNW 8 km/h 20.9 km/h 84 % 0 mm
21:15 -3.6 °C -5.8 °C 1022.9 hPa NNW 8 km/h 20.9 km/h 84 % 0 mm
21:20 -3.6 °C -6.1 °C 1023.6 hPa NNW 4.8 km/h 9.7 km/h 84 % 0 mm
21:25 -3.6 °C -5.8 °C 1022.6 hPa NNW 6.4 km/h 20.9 km/h 84 % 0 mm
21:30 -3.6 °C -5.8 °C 1022.6 hPa NNW 6.4 km/h 20.9 km/h 84 % 0 mm
21:35 -3.8 °C -6.1 °C 1023.6 hPa NW 3.2 km/h 16.1 km/h 83 % 0 mm
21:40 -3.7 °C -6.1 °C 1022.6 hPa NW 3.2 km/h 17.7 km/h 83 % 0 mm
21:45 -3.7 °C -6.1 °C 1022.6 hPa NW 3.2 km/h 17.7 km/h 83 % 0 mm
21:50 -4.1 °C -6.7 °C 1023.9 hPa NW 3.2 km/h 16.1 km/h 82 % 0 mm
21:55 -4.1 °C -6.7 °C 1022.6 hPa NNW 8 km/h 20.9 km/h 82 % 0 mm
22:00 -4.1 °C -6.7 °C 1022.6 hPa NNW 8 km/h 20.9 km/h 82 % 0 mm
22:05 -4.4 °C -6.7 °C 1023.9 hPa NW 1.6 km/h 9.7 km/h 83 % 0 mm
22:10 -4.3 °C -6.8 °C 1022.9 hPa NNW 3.2 km/h 14.5 km/h 83 % 0 mm
22:15 -4.3 °C -6.8 °C 1022.9 hPa NNW 3.2 km/h 14.5 km/h 83 % 0 mm
22:20 -4.7 °C -7.2 °C 1023.9 hPa WNW 1.6 km/h 8 km/h 83 % 0 mm
22:25 -4.6 °C -7.1 °C 1022.9 hPa NW 3.2 km/h 16.1 km/h 83 % 0 mm
22:30 -4.6 °C -7.1 °C 1022.9 hPa NW 3.2 km/h 16.1 km/h 83 % 0 mm
22:35 -4.8 °C -7.2 °C 1023.9 hPa NNW 1.6 km/h 8 km/h 84 % 0 mm
22:40 -4.8 °C -7.1 °C 1022.9 hPa NW 1.6 km/h 9.7 km/h 84 % 0 mm
22:45 -4.8 °C -7.1 °C 1022.9 hPa NW 1.6 km/h 9.7 km/h 84 % 0 mm
22:50 -4.8 °C -6.7 °C 1023.9 hPa Calm   8 km/h 85 % 0 mm
22:55 -4.8 °C -6.9 °C 1022.9 hPa NNW 1.6 km/h 12.9 km/h 85 % 0 mm
23:00 -4.8 °C -6.9 °C 1022.9 hPa NNW 1.6 km/h 12.9 km/h 85 % 0 mm
23:05 -4.9 °C -7.2 °C 1023.9 hPa NW 4.8 km/h 6.4 km/h 85 % 0 mm
23:10 -4.9 °C -7 °C 1022.9 hPa NW 1.6 km/h 12.9 km/h 85 % 0 mm
23:15 -4.9 °C -7 °C 1022.9 hPa NW 1.6 km/h 12.9 km/h 85 % 0 mm
23:20 -5.1 °C -7.2 °C 1023.9 hPa WNW 1.6 km/h 6.4 km/h 86 % 0 mm
23:25 -5.1 °C -7 °C 1022.9 hPa NNW 3.2 km/h 11.3 km/h 86 % 0 mm
23:30 -5.1 °C -7 °C 1022.9 hPa NNW 3.2 km/h 11.3 km/h 86 % 0 mm
23:35 -5.3 °C -7.2 °C 1024.3 hPa NW 1.6 km/h 8 km/h 86 % 0 mm
23:40 -5.3 °C -7.2 °C 1023.2 hPa NNW 1.6 km/h 6.4 km/h 86 % 0 mm
23:45 -5.3 °C -7.2 °C 1023.2 hPa NNW 1.6 km/h 6.4 km/h 86 % 0 mm
23:50 -5.4 °C -7.2 °C 1024.3 hPa NW 3.2 km/h 6.4 km/h 86 % 0 mm
23:55 -5.4 °C -7.4 °C 1023.2 hPa Calm   8 km/h 86 % 0 mm
Des Moines Weather and Climate
Compliments of Weather Underground - 4.25 mb

Script developed by  Jim McMurry - jmcmurry@mwt.net Adapted for the template by  Wim van der Kuil - Leuven-Template.eu

You find our weather info also at:

Weather Underground

Equipment we use:

Weather-station
Davis VP2 Plus

Weather-program
Davis Weatherlink.Com

Weather-server
iMac (Retina 4K, 21.5-inch, Late 2015)

Provider
Hostmonster.com

Davis VP2 Plus

Davis Weatherlink.Com

iMac (Retina 4K, 21.5-inch, Late 2015)

Hostmonster.com